Time;durP1;ratioP1;P1;durP2;ratioP2;P2;SDS_P1;SDS_P2;PMS_P1;PMS_P2;Temp;Humidity;BMP_temperature;BMP_pressure;BME280_temperature;BME280_humidity;BME280_pressure;Samples;Min_cycle;Max_cycle;Signal;HPM_P1;HPM_P2
2022/12/12 00:00:48;;;;;;;2.03;0.90;;;;;;;;;;4958809;28;20454;-70
2022/12/12 00:03:15;;;;;;;2.20;1.00;;;;;;;;;;5001010;28;20892;-70
2022/12/12 00:05:43;;;;;;;3.07;1.07;;;;;;;;;;5013859;28;20910;-70
2022/12/12 00:08:10;;;;;;;2.40;1.20;;;;;;;;;;5031144;28;20429;-70
2022/12/12 00:10:39;;;;;;;2.67;0.80;;;;;;;;;;5012373;28;20988;-70
2022/12/12 00:13:05;;;;;;;1.80;1.00;;;;;;;;;;5011161;28;20475;-70
2022/12/12 00:15:32;;;;;;;2.73;1.20;;;;;;;;;;4994106;28;20439;-70
2022/12/12 00:17:59;;;;;;;1.93;0.70;;;;;;;;;;5011423;28;20555;-70
2022/12/12 00:20:25;;;;;;;2.43;0.70;;;;;;;;;;5011414;28;20427;-70
2022/12/12 00:22:52;;;;;;;2.77;0.80;;;;;;;;;;5011241;28;20501;-70
2022/12/12 00:25:18;;;;;;;1.53;0.70;;;;;;;;;;5011005;28;21290;-70
2022/12/12 00:27:45;;;;;;;2.10;1.20;;;;;;;;;;4993936;28;20423;-70
2022/12/12 00:30:12;;;;;;;3.50;0.93;;;;;;;;;;5011211;28;20435;-70
2022/12/12 00:32:38;;;;;;;2.47;1.00;;;;;;;;;;4993483;28;20550;-70
2022/12/12 00:35:05;;;;;;;1.57;0.80;;;;;;;;;;5009813;28;21013;-70
2022/12/12 00:37:32;;;;;;;1.77;0.73;;;;;;;;;;5011037;28;20889;-70
2022/12/12 00:39:59;;;;;;;3.33;1.10;;;;;;;;;;4993859;28;20439;-70
2022/12/12 00:42:26;;;;;;;2.70;0.70;;;;;;;;;;4977353;28;20930;-70
2022/12/12 00:44:53;;;;;;;1.10;0.80;;;;;;;;;;5008696;28;20534;-70
2022/12/12 00:47:19;;;;;;;1.67;1.00;;;;;;;;;;4993395;28;20459;-70
2022/12/12 00:49:46;;;;;;;2.50;1.00;;;;;;;;;;4987310;28;20439;-70
2022/12/12 00:52:13;;;;;;;3.43;1.17;;;;;;;;;;4957811;28;21172;-70
2022/12/12 00:54:39;;;;;;;3.37;1.13;;;;;;;;;;4990884;28;20788;-70
2022/12/12 00:57:06;;;;;;;2.33;1.00;;;;;;;;;;4991188;28;20517;-70
2022/12/12 00:59:33;;;;;;;1.87;0.90;;;;;;;;;;4991332;28;20538;-70
2022/12/12 01:01:59;;;;;;;3.23;1.07;;;;;;;;;;4996419;28;20478;-70
2022/12/12 01:04:26;;;;;;;2.57;0.90;;;;;;;;;;4996700;28;20450;-70
2022/12/12 01:06:52;;;;;;;5.33;1.13;;;;;;;;;;5013196;28;20474;-70
2022/12/12 01:09:19;;;;;;;2.30;0.93;;;;;;;;;;5010734;28;20434;-70
2022/12/12 01:11:45;;;;;;;1.93;1.10;;;;;;;;;;4993333;28;20469;-70
2022/12/12 01:14:12;;;;;;;3.90;1.07;;;;;;;;;;4993208;28;20463;-70
2022/12/12 01:16:39;;;;;;;2.63;1.30;;;;;;;;;;5010538;28;20439;-70
2022/12/12 01:19:06;;;;;;;2.87;1.40;;;;;;;;;;4993180;28;20489;-70
2022/12/12 01:21:32;;;;;;;1.77;0.97;;;;;;;;;;5006307;28;20486;-70
2022/12/12 01:24:00;;;;;;;3.33;1.30;;;;;;;;;;4990950;28;20931;-70
2022/12/12 01:26:26;;;;;;;3.07;1.13;;;;;;;;;;4991064;28;20533;-70
2022/12/12 01:28:53;;;;;;;2.27;1.07;;;;;;;;;;4990719;28;20431;-70
2022/12/12 01:31:20;;;;;;;2.90;1.10;;;;;;;;;;4973969;28;20530;-70
2022/12/12 01:33:46;;;;;;;2.50;1.17;;;;;;;;;;4973556;28;20511;-70
2022/12/12 01:36:15;;;;;;;1.90;1.20;;;;;;;;;;4990996;28;20473;-70
2022/12/12 01:38:43;;;;;;;3.33;1.10;;;;;;;;;;4973799;28;20447;-70
2022/12/12 01:41:09;;;;;;;2.63;1.13;;;;;;;;;;4989064;28;20536;-70
2022/12/12 01:43:36;;;;;;;1.90;1.00;;;;;;;;;;4990722;28;20439;-70
2022/12/12 01:46:03;;;;;;;2.50;1.10;;;;;;;;;;4973530;28;20444;-70
2022/12/12 01:48:46;;;;;;;3.67;1.20;;;;;;;;;;4990717;28;20436;-70
2022/12/12 01:51:13;;;;;;;2.83;1.00;;;;;;;;;;4973201;28;20649;-70
2022/12/12 01:53:40;;;;;;;2.57;0.90;;;;;;;;;;4990791;28;20498;-70
2022/12/12 01:56:08;;;;;;;1.97;1.00;;;;;;;;;;4973570;28;20447;-70
2022/12/12 01:58:34;;;;;;;3.47;1.10;;;;;;;;;;4982187;28;20452;-70
2022/12/12 02:01:01;;;;;;;3.10;1.17;;;;;;;;;;4990632;28;20494;-70
2022/12/12 02:03:27;;;;;;;1.83;0.93;;;;;;;;;;5021225;28;20522;-70
2022/12/12 02:05:55;;;;;;;3.20;1.30;;;;;;;;;;4995629;28;20452;-70
2022/12/12 02:08:21;;;;;;;2.23;1.00;;;;;;;;;;4983004;28;20434;-70
2022/12/12 02:10:48;;;;;;;3.30;1.23;;;;;;;;;;5015771;28;20419;-71
2022/12/12 02:13:16;;;;;;;1.80;0.90;;;;;;;;;;5033388;28;20504;-70
2022/12/12 02:15:54;;;;;;;2.20;1.00;;;;;;;;;;4999460;28;20937;-70
2022/12/12 02:18:24;;;;;;;3.00;1.30;;;;;;;;;;5011627;28;20483;-70
2022/12/12 02:20:50;;;;;;;6.07;1.20;;;;;;;;;;4976666;28;20515;-70
2022/12/12 02:23:23;;;;;;;3.33;1.20;;;;;;;;;;4993900;28;20789;-70
2022/12/12 02:26:23;;;;;;;2.27;1.37;;;;;;;;;;4993822;28;20430;-70
2022/12/12 02:29:08;;;;;;;2.17;1.37;;;;;;;;;;4994186;28;20455;-70
2022/12/12 02:32:01;;;;;;;4.00;1.30;;;;;;;;;;4993549;28;20535;-70
2022/12/12 02:34:41;;;;;;;2.67;1.20;;;;;;;;;;4977584;28;20483;-70
2022/12/12 02:37:18;;;;;;;2.00;1.07;;;;;;;;;;4992651;28;20439;-70
2022/12/12 02:39:45;;;;;;;2.70;1.23;;;;;;;;;;4993373;28;20428;-70
2022/12/12 02:42:23;;;;;;;4.60;1.10;;;;;;;;;;4993748;28;20515;-70
2022/12/12 02:45:08;;;;;;;1.77;1.03;;;;;;;;;;4976124;28;20504;-70
2022/12/12 02:47:37;;;;;;;2.67;1.20;;;;;;;;;;4975944;28;20970;-71
2022/12/12 02:50:05;;;;;;;3.03;1.00;;;;;;;;;;4992286;28;20530;-71
2022/12/12 02:52:31;;;;;;;4.03;1.10;;;;;;;;;;4992066;28;20480;-71
2022/12/12 02:54:58;;;;;;;2.00;1.07;;;;;;;;;;4993064;28;20578;-71
2022/12/12 02:57:25;;;;;;;2.13;0.83;;;;;;;;;;4974256;28;20519;-71
2022/12/12 02:59:55;;;;;;;2.00;1.03;;;;;;;;;;4993229;28;20471;-71
2022/12/12 03:02:25;;;;;;;2.87;0.90;;;;;;;;;;4988631;28;20454;-71
2022/12/12 03:07:46;;;;;;;2.30;1.33;;;;;;;;;;5017521;28;20458;-70
2022/12/12 03:10:16;;;;;;;1.80;0.87;;;;;;;;;;4998713;28;21245;-70
2022/12/12 03:12:47;;;;;;;1.77;0.63;;;;;;;;;;4975824;28;20436;-70
2022/12/12 03:15:16;;;;;;;2.80;1.07;;;;;;;;;;4975533;28;20437;-70
2022/12/12 03:17:47;;;;;;;3.43;0.87;;;;;;;;;;4975459;28;21035;-70
2022/12/12 03:20:16;;;;;;;1.97;1.00;;;;;;;;;;4975287;28;20471;-70
2022/12/12 03:22:45;;;;;;;2.83;0.90;;;;;;;;;;4992894;28;20514;-70
2022/12/12 03:25:14;;;;;;;2.10;1.00;;;;;;;;;;4975648;28;20907;-70
2022/12/12 03:27:46;;;;;;;2.30;1.07;;;;;;;;;;4975169;28;20518;-71
2022/12/12 03:30:14;;;;;;;2.07;1.00;;;;;;;;;;4975087;28;20452;-71
2022/12/12 03:32:49;;;;;;;3.30;1.20;;;;;;;;;;4975317;28;20519;-71
2022/12/12 03:35:18;;;;;;;1.70;1.03;;;;;;;;;;4992461;28;20435;-71
2022/12/12 03:38:07;;;;;;;2.00;0.80;;;;;;;;;;4992676;28;20815;-70
2022/12/12 03:40:39;;;;;;;1.60;0.87;;;;;;;;;;4974689;28;20459;-70
2022/12/12 03:43:07;;;;;;;2.50;0.93;;;;;;;;;;4975220;28;20460;-70
2022/12/12 03:45:43;;;;;;;1.03;0.70;;;;;;;;;;4974472;28;20550;-70
2022/12/12 03:48:28;;;;;;;3.80;1.00;;;;;;;;;;4977301;28;20465;-70
2022/12/12 03:50:58;;;;;;;2.17;0.73;;;;;;;;;;4974578;28;20464;-70
2022/12/12 03:53:32;;;;;;;3.50;0.93;;;;;;;;;;4975015;28;20967;-70
2022/12/12 03:56:02;;;;;;;2.17;1.03;;;;;;;;;;4975082;28;20534;-70
2022/12/12 03:58:48;;;;;;;1.90;0.80;;;;;;;;;;4984542;28;20462;-75
2022/12/12 04:01:15;;;;;;;3.10;0.80;;;;;;;;;;4971480;28;20493;-75
2022/12/12 04:03:59;;;;;;;2.67;0.93;;;;;;;;;;4987332;28;20515;-74
2022/12/12 04:06:26;;;;;;;3.07;1.20;;;;;;;;;;4989618;28;20446;-74
2022/12/12 04:14:59;;;;;;;2.40;1.00;;;;;;;;;;5009027;28;20509;-71
2022/12/12 04:17:37;;;;;;;4.70;1.20;;;;;;;;;;5008159;28;20459;-72
2022/12/12 04:23:15;;;;;;;1.30;0.70;;;;;;;;;;5003908;28;20473;-72
2022/12/12 04:28:47;;;;;;;4.50;1.90;;;;;;;;;;4994071;28;20517;-73
2022/12/12 04:31:14;;;;;;;7.80;3.33;;;;;;;;;;5008401;28;20447;-73
2022/12/12 04:33:42;;;;;;;5.90;2.73;;;;;;;;;;4990208;28;20463;-75
2022/12/12 04:36:09;;;;;;;3.20;1.43;;;;;;;;;;4991293;28;20476;-75
2022/12/12 04:38:36;;;;;;;4.47;1.87;;;;;;;;;;4990453;28;20454;-76
2022/12/12 04:41:02;;;;;;;2.10;1.10;;;;;;;;;;5007732;28;20465;-75
2022/12/12 04:43:32;;;;;;;9.43;4.73;;;;;;;;;;5007601;28;20489;-75
2022/12/12 04:46:05;;;;;;;4.50;2.20;;;;;;;;;;5007719;28;20443;-75
2022/12/12 04:48:45;;;;;;;5.47;2.57;;;;;;;;;;4990336;28;20438;-76
2022/12/12 04:51:13;;;;;;;5.37;2.33;;;;;;;;;;4985836;28;20495;-70
2022/12/12 04:53:41;;;;;;;4.23;1.40;;;;;;;;;;5000669;28;20458;-69
2022/12/12 04:56:08;;;;;;;4.53;1.60;;;;;;;;;;4983235;28;21212;-70
2022/12/12 04:58:36;;;;;;;2.87;1.50;;;;;;;;;;4980617;28;20447;-70
2022/12/12 05:01:06;;;;;;;5.07;1.83;;;;;;;;;;4978537;28;20443;-69
2022/12/12 05:03:36;;;;;;;3.53;1.40;;;;;;;;;;4979631;28;20439;-67
2022/12/12 05:06:06;;;;;;;3.37;1.60;;;;;;;;;;5007808;28;20457;-72
2022/12/12 05:08:34;;;;;;;3.50;1.00;;;;;;;;;;4989321;28;20439;-70
2022/12/12 05:11:01;;;;;;;3.37;1.23;;;;;;;;;;5008070;28;20459;-68
2022/12/12 05:13:28;;;;;;;4.77;2.00;;;;;;;;;;4997704;28;20465;-71
2022/12/12 05:15:55;;;;;;;5.23;2.03;;;;;;;;;;4990041;28;20522;-73
2022/12/12 05:18:21;;;;;;;2.93;1.27;;;;;;;;;;4974488;28;20434;-74
2022/12/12 05:20:48;;;;;;;3.10;1.00;;;;;;;;;;4990408;28;20910;-72
2022/12/12 05:23:15;;;;;;;3.63;1.50;;;;;;;;;;4979874;28;20551;-70
2022/12/12 05:25:42;;;;;;;5.17;1.80;;;;;;;;;;4985846;28;20875;-72
2022/12/12 05:28:08;;;;;;;9.87;4.90;;;;;;;;;;4972809;28;20494;-70
2022/12/12 05:30:36;;;;;;;7.53;3.33;;;;;;;;;;5006354;28;20595;-71
2022/12/12 05:33:02;;;;;;;10.63;5.20;;;;;;;;;;4973512;28;20479;-69
2022/12/12 05:35:29;;;;;;;3.30;1.30;;;;;;;;;;5003966;28;20511;-69
2022/12/12 05:37:56;;;;;;;2.20;1.20;;;;;;;;;;4991682;28;20998;-68
2022/12/12 05:40:22;;;;;;;5.70;1.57;;;;;;;;;;5008876;28;20525;-68
2022/12/12 05:42:50;;;;;;;3.87;1.17;;;;;;;;;;4980912;28;20450;-67
2022/12/12 05:45:17;;;;;;;3.00;1.10;;;;;;;;;;4995273;28;20809;-68
2022/12/12 05:47:43;;;;;;;4.10;1.83;;;;;;;;;;4974624;28;20447;-69
2022/12/12 05:50:11;;;;;;;7.83;1.93;;;;;;;;;;4988492;28;20502;-70
2022/12/12 05:52:38;;;;;;;4.47;2.03;;;;;;;;;;4993298;28;20484;-70
2022/12/12 05:55:05;;;;;;;5.43;2.13;;;;;;;;;;5011195;28;20510;-71
2022/12/12 05:57:31;;;;;;;8.03;3.23;;;;;;;;;;5012278;28;20527;-69
2022/12/12 05:59:58;;;;;;;3.53;1.90;;;;;;;;;;5010773;28;20537;-70
2022/12/12 06:02:25;;;;;;;5.10;1.90;;;;;;;;;;5002287;28;20854;-68
2022/12/12 06:04:52;;;;;;;3.00;1.70;;;;;;;;;;4991192;28;20857;-70
2022/12/12 06:07:18;;;;;;;7.93;2.87;;;;;;;;;;4990543;28;20432;-71
2022/12/12 06:09:46;;;;;;;3.50;1.83;;;;;;;;;;5007712;28;20859;-71
2022/12/12 06:12:13;;;;;;;6.23;3.07;;;;;;;;;;5010795;28;20435;-70
2022/12/12 06:14:39;;;;;;;3.10;1.90;;;;;;;;;;5007831;28;21152;-72
2022/12/12 06:17:06;;;;;;;3.87;1.77;;;;;;;;;;5010819;28;20451;-75
2022/12/12 06:19:33;;;;;;;3.23;1.73;;;;;;;;;;4992656;28;20419;-69
2022/12/12 06:21:59;;;;;;;4.07;2.43;;;;;;;;;;5010289;28;20543;-69
2022/12/12 06:24:26;;;;;;;4.47;2.30;;;;;;;;;;5010479;28;20439;-72
2022/12/12 06:26:55;;;;;;;6.50;2.23;;;;;;;;;;5012812;28;20454;-71
2022/12/12 06:29:22;;;;;;;3.60;2.27;;;;;;;;;;5005921;28;20447;-71
2022/12/12 06:31:49;;;;;;;3.00;1.90;;;;;;;;;;5013544;28;20435;-72
2022/12/12 06:34:15;;;;;;;5.00;2.33;;;;;;;;;;5013508;28;20506;-72
2022/12/12 06:36:42;;;;;;;3.97;2.03;;;;;;;;;;5013333;28;20435;-72
2022/12/12 06:39:08;;;;;;;3.53;1.90;;;;;;;;;;5013389;28;20461;-72
2022/12/12 06:41:35;;;;;;;4.23;2.50;;;;;;;;;;5012906;28;20506;-72
2022/12/12 06:44:02;;;;;;;3.70;2.30;;;;;;;;;;5006340;28;20542;-73
2022/12/12 06:46:29;;;;;;;5.63;2.70;;;;;;;;;;4990584;28;20498;-70
2022/12/12 06:48:56;;;;;;;4.00;2.20;;;;;;;;;;5009880;28;20454;-71
2022/12/12 06:51:23;;;;;;;5.83;2.53;;;;;;;;;;4993739;28;20490;-69
2022/12/12 06:53:50;;;;;;;4.30;2.30;;;;;;;;;;4999660;28;20521;-70
2022/12/12 06:56:18;;;;;;;5.57;2.60;;;;;;;;;;5008750;28;20434;-70
2022/12/12 06:58:44;;;;;;;4.43;2.27;;;;;;;;;;5013965;28;20518;-71
2022/12/12 07:01:12;;;;;;;4.27;2.10;;;;;;;;;;4993505;28;20513;-71
2022/12/12 07:03:39;;;;;;;5.00;2.10;;;;;;;;;;5011728;28;20430;-68
2022/12/12 07:06:05;;;;;;;2.60;1.63;;;;;;;;;;5032614;28;20938;-68
2022/12/12 07:08:32;;;;;;;4.07;2.10;;;;;;;;;;5005709;28;20534;-68
2022/12/12 07:11:03;;;;;;;4.63;2.37;;;;;;;;;;5010115;28;20533;-68
2022/12/12 07:13:30;;;;;;;4.20;2.27;;;;;;;;;;5013651;28;20436;-68
2022/12/12 07:15:56;;;;;;;5.30;2.03;;;;;;;;;;4998280;28;20473;-68
2022/12/12 07:18:23;;;;;;;6.53;2.10;;;;;;;;;;5031794;28;20516;-68
2022/12/12 07:20:50;;;;;;;7.37;4.50;;;;;;;;;;5014753;28;20500;-68
2022/12/12 07:23:16;;;;;;;5.10;2.77;;;;;;;;;;5031808;28;20427;-68
2022/12/12 07:25:43;;;;;;;4.40;2.03;;;;;;;;;;5000714;28;20435;-68
2022/12/12 07:28:10;;;;;;;4.60;2.23;;;;;;;;;;4994799;28;20439;-68
2022/12/12 07:30:40;;;;;;;6.30;3.00;;;;;;;;;;5012057;28;20936;-68
2022/12/12 07:33:07;;;;;;;4.83;2.43;;;;;;;;;;4995035;28;20796;-68
2022/12/12 07:35:34;;;;;;;10.47;5.33;;;;;;;;;;4994488;28;20930;-68
2022/12/12 07:38:01;;;;;;;6.63;4.03;;;;;;;;;;5012487;28;20497;-68
2022/12/12 07:40:27;;;;;;;10.03;4.43;;;;;;;;;;4994481;28;20851;-69
2022/12/12 07:42:54;;;;;;;7.03;4.60;;;;;;;;;;5008738;28;20796;-68
2022/12/12 07:45:21;;;;;;;6.27;3.77;;;;;;;;;;5031656;28;20529;-68
2022/12/12 07:47:47;;;;;;;4.20;3.30;;;;;;;;;;5014267;28;20906;-68
2022/12/12 07:50:14;;;;;;;10.03;6.03;;;;;;;;;;5013674;28;20945;-68
2022/12/12 07:52:41;;;;;;;10.30;6.17;;;;;;;;;;5010735;28;20976;-68
2022/12/12 07:55:08;;;;;;;7.90;4.50;;;;;;;;;;5011746;28;21013;-68
2022/12/12 07:57:35;;;;;;;8.33;3.13;;;;;;;;;;5011640;28;20439;-68
2022/12/12 08:00:03;;;;;;;4.93;2.97;;;;;;;;;;5010230;28;20947;-68
2022/12/12 08:02:37;;;;;;;4.83;2.63;;;;;;;;;;4991988;28;20463;-68
2022/12/12 08:05:04;;;;;;;5.57;2.67;;;;;;;;;;4992127;28;20777;-68
2022/12/12 08:07:31;;;;;;;6.43;2.60;;;;;;;;;;4992516;28;20436;-68
2022/12/12 08:09:58;;;;;;;6.23;2.77;;;;;;;;;;4990310;28;21007;-68
2022/12/12 08:12:27;;;;;;;8.03;3.73;;;;;;;;;;4991910;28;20428;-68
2022/12/12 08:14:54;;;;;;;8.17;4.10;;;;;;;;;;4991655;28;20468;-68
2022/12/12 08:17:20;;;;;;;7.23;4.13;;;;;;;;;;5007054;28;20440;-68
2022/12/12 08:19:47;;;;;;;8.00;4.53;;;;;;;;;;5011386;28;20497;-68
2022/12/12 08:22:14;;;;;;;6.80;3.67;;;;;;;;;;5011214;28;20969;-68
2022/12/12 08:24:40;;;;;;;6.77;2.87;;;;;;;;;;5011423;28;20558;-68
2022/12/12 08:27:07;;;;;;;5.83;3.43;;;;;;;;;;5011301;28;20431;-69
2022/12/12 08:29:41;;;;;;;7.33;3.60;;;;;;;;;;5011125;28;20434;-68
2022/12/12 08:32:07;;;;;;;7.30;3.37;;;;;;;;;;5009971;28;20427;-68
2022/12/12 08:34:34;;;;;;;5.40;3.13;;;;;;;;;;5010801;28;20846;-69
2022/12/12 08:37:00;;;;;;;9.80;4.67;;;;;;;;;;5011237;28;20445;-68
2022/12/12 08:39:30;;;;;;;7.77;4.33;;;;;;;;;;5011103;28;20431;-68
2022/12/12 08:41:57;;;;;;;6.23;3.30;;;;;;;;;;5010858;28;20518;-68
2022/12/12 08:44:23;;;;;;;4.73;3.07;;;;;;;;;;5010961;28;20470;-68
2022/12/12 08:46:50;;;;;;;5.17;2.70;;;;;;;;;;5010963;28;20427;-68
2022/12/12 08:49:17;;;;;;;6.43;3.33;;;;;;;;;;5010549;28;20510;-68
2022/12/12 08:51:44;;;;;;;7.17;3.73;;;;;;;;;;5009607;28;20471;-68
2022/12/12 08:54:10;;;;;;;7.33;4.10;;;;;;;;;;5009406;28;20892;-68
2022/12/12 08:56:37;;;;;;;6.60;4.07;;;;;;;;;;5010295;28;20529;-68
2022/12/12 08:59:04;;;;;;;7.33;4.67;;;;;;;;;;5009601;28;20431;-68
2022/12/12 09:01:31;;;;;;;6.10;3.73;;;;;;;;;;5010719;28;20486;-68
2022/12/12 09:03:57;;;;;;;11.73;6.67;;;;;;;;;;5010637;28;21032;-68
2022/12/12 09:06:24;;;;;;;9.13;5.53;;;;;;;;;;5010723;28;20779;-68
2022/12/12 09:08:51;;;;;;;9.20;5.40;;;;;;;;;;4993230;28;20450;-68
2022/12/12 09:11:18;;;;;;;12.47;7.07;;;;;;;;;;5010266;28;20942;-68
2022/12/12 09:13:44;;;;;;;13.27;7.73;;;;;;;;;;5010857;28;20485;-68
2022/12/12 09:16:11;;;;;;;14.10;9.17;;;;;;;;;;5004193;28;20502;-68
2022/12/12 09:18:38;;;;;;;9.47;5.10;;;;;;;;;;4995035;28;20428;-68
2022/12/12 09:21:13;;;;;;;6.03;2.97;;;;;;;;;;4994781;28;20559;-68
2022/12/12 09:23:40;;;;;;;9.43;6.20;;;;;;;;;;4995168;28;20494;-68
2022/12/12 09:26:07;;;;;;;7.50;4.40;;;;;;;;;;4989539;28;20436;-68
2022/12/12 09:28:33;;;;;;;8.00;3.80;;;;;;;;;;4993727;28;20423;-68
2022/12/12 09:31:02;;;;;;;8.00;3.50;;;;;;;;;;4994728;28;20494;-68
2022/12/12 09:33:32;;;;;;;6.40;3.60;;;;;;;;;;4977698;28;20456;-68
2022/12/12 09:35:59;;;;;;;7.00;3.60;;;;;;;;;;4977072;28;21070;-69
2022/12/12 09:38:26;;;;;;;6.27;3.47;;;;;;;;;;4993618;28;20439;-68
2022/12/12 09:40:53;;;;;;;4.93;3.10;;;;;;;;;;4977141;28;20448;-68
2022/12/12 09:43:20;;;;;;;6.67;3.47;;;;;;;;;;4994487;28;20514;-68
2022/12/12 09:45:54;;;;;;;5.37;3.50;;;;;;;;;;4977529;28;20443;-68
2022/12/12 09:48:41;;;;;;;5.13;3.50;;;;;;;;;;4993543;28;20430;-68
2022/12/12 09:51:08;;;;;;;6.77;4.33;;;;;;;;;;4977034;28;20476;-68
2022/12/12 09:53:35;;;;;;;7.40;3.03;;;;;;;;;;4993164;28;20827;-67
2022/12/12 09:56:28;;;;;;;6.83;4.40;;;;;;;;;;4992852;28;20462;-67
2022/12/12 09:58:57;;;;;;;5.20;3.90;;;;;;;;;;4991496;28;21029;-69
2022/12/12 10:01:30;;;;;;;4.70;3.23;;;;;;;;;;4993141;28;21001;-68
2022/12/12 10:04:19;;;;;;;6.77;4.00;;;;;;;;;;4992961;28;20440;-68
2022/12/12 10:06:51;;;;;;;7.73;4.17;;;;;;;;;;4992734;28;20947;-68
2022/12/12 10:09:30;;;;;;;7.70;3.90;;;;;;;;;;4992961;28;20860;-68
2022/12/12 10:11:57;;;;;;;6.17;4.20;;;;;;;;;;4992447;28;20448;-68
2022/12/12 10:14:30;;;;;;;5.03;3.40;;;;;;;;;;4993163;28;20674;-68
2022/12/12 10:16:57;;;;;;;6.80;4.20;;;;;;;;;;5007166;28;20425;-68
2022/12/12 10:19:25;;;;;;;8.97;5.40;;;;;;;;;;5013579;28;20427;-68
2022/12/12 10:21:52;;;;;;;9.70;6.33;;;;;;;;;;4995907;28;20441;-69
2022/12/12 10:24:38;;;;;;;10.70;5.60;;;;;;;;;;5013687;28;20779;-68
2022/12/12 10:27:09;;;;;;;11.47;6.30;;;;;;;;;;5011341;28;20443;-68
2022/12/12 10:29:36;;;;;;;12.00;7.20;;;;;;;;;;5011830;28;20431;-68
2022/12/12 10:32:16;;;;;;;8.60;5.17;;;;;;;;;;5013379;28;20431;-68
2022/12/12 10:35:02;;;;;;;12.23;7.03;;;;;;;;;;5012090;28;20802;-68
2022/12/12 10:38:01;;;;;;;9.07;4.87;;;;;;;;;;5013079;28;20965;-68
2022/12/12 10:40:45;;;;;;;7.73;4.40;;;;;;;;;;4979793;28;20435;-68
2022/12/12 10:43:21;;;;;;;10.83;6.60;;;;;;;;;;5011990;28;20457;-68
2022/12/12 10:45:57;;;;;;;15.77;7.87;;;;;;;;;;5011877;28;20459;-68
2022/12/12 10:48:24;;;;;;;6.63;3.83;;;;;;;;;;5013050;28;20890;-68
2022/12/12 10:50:56;;;;;;;6.43;3.47;;;;;;;;;;5011395;28;20513;-68
2022/12/12 10:53:23;;;;;;;7.70;3.97;;;;;;;;;;5011850;28;20527;-67
2022/12/12 10:55:50;;;;;;;12.50;5.23;;;;;;;;;;5011409;28;20533;-67
2022/12/12 10:58:17;;;;;;;51.67;16.57;;;;;;;;;;4995277;28;20870;-67
2022/12/12 11:00:44;;;;;;;52.90;16.37;;;;;;;;;;5012748;28;20494;-67
2022/12/12 11:03:11;;;;;;;16.13;6.70;;;;;;;;;;5013087;28;20435;-67
2022/12/12 11:05:38;;;;;;;41.03;17.40;;;;;;;;;;5012757;28;20489;-67
2022/12/12 11:08:06;;;;;;;11.17;5.93;;;;;;;;;;5011091;28;20419;-67
2022/12/12 11:10:35;;;;;;;22.30;9.60;;;;;;;;;;5013094;28;20427;-67
2022/12/12 11:13:08;;;;;;;27.03;10.57;;;;;;;;;;5011108;28;20435;-67
2022/12/12 11:15:40;;;;;;;9.87;4.83;;;;;;;;;;5009693;28;20826;-67
2022/12/12 11:18:10;;;;;;;10.60;4.87;;;;;;;;;;4992827;28;20780;-67
2022/12/12 11:20:42;;;;;;;7.13;3.67;;;;;;;;;;4991658;28;20490;-67
2022/12/12 11:23:12;;;;;;;15.83;6.53;;;;;;;;;;4991375;28;20439;-67
2022/12/12 11:25:43;;;;;;;23.23;11.43;;;;;;;;;;4991588;28;20549;-69
2022/12/12 11:28:14;;;;;;;28.10;14.53;;;;;;;;;;4987738;28;20452;-68
2022/12/12 11:30:44;;;;;;;13.37;7.87;;;;;;;;;;4976424;28;20204;-67
2022/12/12 11:33:15;;;;;;;8.67;4.67;;;;;;;;;;4991428;28;20436;-67
2022/12/12 11:35:41;;;;;;;5.60;3.33;;;;;;;;;;4991407;28;20521;-67
2022/12/12 11:38:22;;;;;;;10.07;5.53;;;;;;;;;;4992391;28;20463;-67
2022/12/12 11:41:01;;;;;;;11.00;5.80;;;;;;;;;;4984709;28;21014;-67
2022/12/12 11:43:29;;;;;;;8.23;4.60;;;;;;;;;;4991283;28;20432;-67
2022/12/12 11:45:56;;;;;;;7.07;4.90;;;;;;;;;;4992358;28;20451;-67
2022/12/12 11:48:29;;;;;;;6.33;4.20;;;;;;;;;;4989257;28;20435;-67
2022/12/12 11:50:56;;;;;;;6.47;3.67;;;;;;;;;;4974566;28;20476;-67
2022/12/12 11:53:22;;;;;;;5.60;3.60;;;;;;;;;;4990920;28;20432;-67
2022/12/12 11:55:58;;;;;;;6.87;3.77;;;;;;;;;;4992190;28;20882;-67
2022/12/12 11:58:27;;;;;;;6.00;3.50;;;;;;;;;;4990917;28;20904;-67
2022/12/12 12:00:57;;;;;;;6.03;3.50;;;;;;;;;;4990577;28;20486;-67
2022/12/12 12:03:42;;;;;;;8.80;4.00;;;;;;;;;;4974613;28;20487;-67
2022/12/12 12:06:15;;;;;;;8.67;4.43;;;;;;;;;;4992224;28;20432;-67
2022/12/12 12:08:51;;;;;;;6.50;3.30;;;;;;;;;;4990434;28;20454;-68
2022/12/12 12:11:24;;;;;;;6.13;3.07;;;;;;;;;;4991705;28;20451;-68
2022/12/12 12:13:55;;;;;;;5.13;3.00;;;;;;;;;;4974651;28;20439;-68
2022/12/12 12:16:22;;;;;;;6.50;3.30;;;;;;;;;;4999467;28;20818;-68
2022/12/12 12:18:48;;;;;;;5.83;3.03;;;;;;;;;;5011411;28;20526;-68
2022/12/12 12:21:18;;;;;;;4.70;2.77;;;;;;;;;;5010223;28;20526;-68
2022/12/12 12:24:11;;;;;;;5.43;3.00;;;;;;;;;;5011284;28;20410;-68
2022/12/12 12:27:05;;;;;;;8.70;4.30;;;;;;;;;;5011205;28;20453;-67
2022/12/12 12:29:35;;;;;;;9.10;5.00;;;;;;;;;;4980520;28;20443;-67
2022/12/12 12:32:01;;;;;;;10.60;5.30;;;;;;;;;;5010009;28;20451;-69
2022/12/12 12:34:38;;;;;;;8.20;4.10;;;;;;;;;;5009999;28;20866;-68
2022/12/12 12:37:14;;;;;;;6.63;3.97;;;;;;;;;;5009935;28;20478;-68
2022/12/12 12:39:51;;;;;;;11.30;6.53;;;;;;;;;;5011567;28;20937;-68
2022/12/12 12:42:21;;;;;;;17.83;9.47;;;;;;;;;;5010831;28;20423;-68
2022/12/12 12:44:53;;;;;;;9.70;5.13;;;;;;;;;;5011061;28;20437;-68
2022/12/12 12:47:46;;;;;;;5.00;2.87;;;;;;;;;;5010736;28;20419;-68
2022/12/12 12:50:13;;;;;;;4.50;2.40;;;;;;;;;;5009359;28;20491;-68
2022/12/12 12:52:48;;;;;;;5.60;2.30;;;;;;;;;;5009469;28;20718;-69
2022/12/12 12:55:15;;;;;;;3.50;2.07;;;;;;;;;;5009362;28;20926;-68
2022/12/12 12:57:42;;;;;;;4.20;2.20;;;;;;;;;;5009491;28;20427;-69
2022/12/12 13:00:16;;;;;;;3.77;2.30;;;;;;;;;;5009660;28;20435;-68
2022/12/12 13:02:43;;;;;;;4.50;2.50;;;;;;;;;;5009371;28;20461;-68
2022/12/12 13:05:10;;;;;;;3.87;1.53;;;;;;;;;;5010983;28;20777;-68
2022/12/12 13:07:42;;;;;;;4.97;2.00;;;;;;;;;;5010345;28;20416;-68
2022/12/12 13:10:14;;;;;;;5.67;2.17;;;;;;;;;;5010885;28;20437;-68
2022/12/12 13:12:43;;;;;;;5.07;3.53;;;;;;;;;;5010577;28;20431;-68
2022/12/12 13:15:36;;;;;;;3.50;2.20;;;;;;;;;;5009324;28;20421;-68
2022/12/12 13:18:12;;;;;;;3.60;2.90;;;;;;;;;;4956057;28;20449;-68
2022/12/12 13:20:50;;;;;;;5.77;3.23;;;;;;;;;;4971609;28;20940;-68
2022/12/12 13:23:19;;;;;;;4.87;3.00;;;;;;;;;;4970016;28;20503;-68
2022/12/12 13:25:57;;;;;;;4.60;2.80;;;;;;;;;;4971321;28;20473;-68
2022/12/12 13:28:40;;;;;;;4.03;2.47;;;;;;;;;;4970299;28;20520;-68
2022/12/12 13:31:12;;;;;;;4.60;3.07;;;;;;;;;;4954357;28;20441;-68
2022/12/12 13:33:39;;;;;;;7.70;3.20;;;;;;;;;;4970212;28;20440;-67
2022/12/12 13:36:07;;;;;;;5.93;3.17;;;;;;;;;;4970312;28;20509;-68
2022/12/12 13:38:34;;;;;;;10.70;3.40;;;;;;;;;;4970051;28;20428;-67
2022/12/12 13:41:02;;;;;;;7.10;3.40;;;;;;;;;;4971526;28;20446;-68
2022/12/12 13:43:39;;;;;;;9.93;5.07;;;;;;;;;;4969956;28;20437;-67
2022/12/12 13:46:27;;;;;;;8.40;3.70;;;;;;;;;;4970310;28;20448;-67
2022/12/12 13:49:01;;;;;;;10.43;3.70;;;;;;;;;;4971227;28;20476;-67
2022/12/12 13:51:32;;;;;;;8.90;4.50;;;;;;;;;;4969899;28;20476;-68
2022/12/12 13:54:08;;;;;;;5.97;3.50;;;;;;;;;;4971302;28;20919;-68
2022/12/12 13:56:51;;;;;;;8.23;3.77;;;;;;;;;;4971357;28;20462;-68
2022/12/12 13:59:21;;;;;;;8.87;3.27;;;;;;;;;;4971217;28;20780;-67
2022/12/12 14:01:51;;;;;;;9.20;3.90;;;;;;;;;;4971293;28;20431;-67
2022/12/12 14:04:25;;;;;;;8.77;4.17;;;;;;;;;;4982231;28;20827;-68
2022/12/12 14:07:02;;;;;;;9.97;4.50;;;;;;;;;;4993031;28;20526;-69
2022/12/12 14:09:29;;;;;;;9.80;3.63;;;;;;;;;;4993960;28;20938;-68
2022/12/12 14:12:16;;;;;;;6.70;3.40;;;;;;;;;;4993065;28;20823;-68
2022/12/12 14:14:49;;;;;;;6.73;2.83;;;;;;;;;;4994439;28;20459;-69
2022/12/12 14:17:20;;;;;;;7.20;3.80;;;;;;;;;;4984264;28;20578;-68
2022/12/12 14:19:48;;;;;;;22.53;12.10;;;;;;;;;;4993170;28;20442;-69
2022/12/12 14:22:48;;;;;;;8.63;4.60;;;;;;;;;;4994361;28;20448;-70
2022/12/12 14:25:19;;;;;;;9.70;4.20;;;;;;;;;;4974113;28;20533;-71
2022/12/12 14:27:49;;;;;;;5.90;3.70;;;;;;;;;;4987420;28;20452;-69
2022/12/12 14:30:20;;;;;;;11.40;3.90;;;;;;;;;;4990293;28;20784;-69
2022/12/12 14:32:56;;;;;;;7.20;3.20;;;;;;;;;;4990818;28;20476;-69
2022/12/12 14:35:35;;;;;;;10.33;3.67;;;;;;;;;;4988242;28;20491;-68
2022/12/12 14:38:03;;;;;;;8.93;6.40;;;;;;;;;;4987162;28;20456;-72
2022/12/12 14:40:43;;;;;;;15.57;7.70;;;;;;;;;;4988252;28;20455;-71
2022/12/12 14:43:14;;;;;;;52.73;30.13;;;;;;;;;;4990341;28;20428;-72
2022/12/12 14:45:48;;;;;;;13.90;7.50;;;;;;;;;;4970937;28;20448;-73
2022/12/12 14:48:16;;;;;;;14.53;6.90;;;;;;;;;;4990264;28;20929;-73
2022/12/12 14:50:43;;;;;;;11.50;7.07;;;;;;;;;;4991209;28;20483;-73
2022/12/12 14:53:17;;;;;;;14.30;8.43;;;;;;;;;;4976520;28;20464;-73
2022/12/12 14:55:47;;;;;;;15.87;7.83;;;;;;;;;;5009155;28;20440;-72
2022/12/12 14:58:16;;;;;;;10.87;5.87;;;;;;;;;;4992252;28;20439;-73
2022/12/12 15:00:50;;;;;;;269.17;81.07;;;;;;;;;;4992025;28;20435;-73
2022/12/12 15:03:28;;;;;;;80.73;28.07;;;;;;;;;;4992255;28;20435;-70
2022/12/12 15:06:13;;;;;;;98.87;35.30;;;;;;;;;;5008812;28;20451;-71
2022/12/12 15:08:40;;;;;;;47.23;17.90;;;;;;;;;;5008952;28;20453;-69
2022/12/12 15:11:17;;;;;;;19.63;8.43;;;;;;;;;;4994104;28;20435;-70
2022/12/12 15:14:06;;;;;;;140.07;48.77;;;;;;;;;;5005990;28;20447;-68